createdAt,value
2022-08-05T00:01:35.522Z,4.63
2022-08-05T00:04:05.175Z,5.43
2022-08-05T00:06:36.260Z,7.83
2022-08-05T00:09:04.851Z,7.33
2022-08-05T00:11:49.584Z,7.50
2022-08-05T00:14:27.579Z,5.37
2022-08-05T00:16:57.146Z,3.90
2022-08-05T00:19:33.226Z,4.87
2022-08-05T00:22:08.383Z,11.53
2022-08-05T00:24:42.608Z,5.80
2022-08-05T00:27:13.995Z,4.07
2022-08-05T00:29:44.225Z,5.77
2022-08-05T00:32:14.794Z,6.40
2022-08-05T00:35:04.389Z,5.40
2022-08-05T00:37:50.283Z,6.73
2022-08-05T00:40:26.790Z,5.60
2022-08-05T00:42:55.695Z,8.17
2022-08-05T00:45:28.088Z,7.30
2022-08-05T00:48:06.394Z,4.93
2022-08-05T00:50:35.769Z,5.10
2022-08-05T00:53:03.411Z,6.97
2022-08-05T00:55:43.547Z,4.93
2022-08-05T00:58:12.027Z,4.67
2022-08-05T01:00:40.081Z,6.07
2022-08-05T01:03:08.128Z,5.43
2022-08-05T01:05:35.746Z,7.27
2022-08-05T01:08:40.575Z,5.63
2022-08-05T01:11:00.068Z,6.17
2022-08-05T01:13:58.861Z,4.80
2022-08-05T01:16:44.306Z,20.50
2022-08-05T01:19:56.827Z,4.60
2022-08-05T01:22:38.124Z,5.27
2022-08-05T01:25:13.499Z,4.93
2022-08-05T01:27:50.564Z,6.87
2022-08-05T01:30:33.729Z,7.20
2022-08-05T01:33:08.139Z,5.87
2022-08-05T01:35:52.061Z,6.50
2022-08-05T01:38:26.916Z,8.37
2022-08-05T01:40:56.111Z,7.37
2022-08-05T01:43:25.038Z,6.67
2022-08-05T01:45:56.783Z,4.60
2022-08-05T01:48:25.773Z,5.87
2022-08-05T01:50:55.950Z,5.70
2022-08-05T01:53:58.126Z,11.90
2022-08-05T01:56:12.697Z,9.77
2022-08-05T01:58:45.023Z,6.30
2022-08-05T02:01:14.895Z,6.03
2022-08-05T02:03:52.355Z,12.77
2022-08-05T02:06:33.522Z,9.47
2022-08-05T02:09:06.584Z,15.27
2022-08-05T02:11:52.487Z,10.43
2022-08-05T02:14:32.840Z,24.07
2022-08-05T02:17:29.637Z,16.07
2022-08-05T02:20:02.529Z,13.23
2022-08-05T02:22:47.548Z,10.50
2022-08-05T02:25:22.726Z,15.40
2022-08-05T02:27:59.273Z,21.33
2022-08-05T02:30:31.281Z,16.97
2022-08-05T02:33:02.982Z,18.77
2022-08-05T02:35:33.410Z,12.70
2022-08-05T02:38:05.586Z,20.40
2022-08-05T02:40:38.337Z,25.43
2022-08-05T02:43:07.797Z,18.13
2022-08-05T02:45:52.623Z,32.83
2022-08-05T02:48:29.303Z,11.63
2022-08-05T02:51:03.762Z,16.87
2022-08-05T02:53:39.365Z,21.57
2022-08-05T02:56:09.955Z,16.20
2022-08-05T02:58:44.633Z,19.17
2022-08-05T03:01:20.451Z,13.20
2022-08-05T03:04:03.232Z,15.20
2022-08-05T03:06:55.566Z,23.03
2022-08-05T03:09:36.070Z,20.10
2022-08-05T03:12:05.478Z,19.27
2022-08-05T03:14:32.966Z,23.27
2022-08-05T03:17:00.614Z,18.93
2022-08-05T03:19:33.810Z,15.83
2022-08-05T03:22:01.770Z,15.27
2022-08-05T03:24:32.359Z,29.87
2022-08-05T03:27:01.552Z,22.27
2022-08-05T03:29:45.854Z,19.37
2022-08-05T03:32:16.911Z,22.30
2022-08-05T03:34:51.116Z,24.33
2022-08-05T03:37:19.782Z,19.77
2022-08-05T03:39:59.104Z,24.37
2022-08-05T03:42:27.281Z,15.13
2022-08-05T03:44:57.054Z,25.43
2022-08-05T03:47:25.062Z,17.40
2022-08-05T03:49:53.034Z,18.73
2022-08-05T03:52:37.213Z,25.53
2022-08-05T03:56:04.121Z,28.47
2022-08-05T03:58:03.330Z,29.37
2022-08-05T04:00:32.957Z,21.43
2022-08-05T04:03:02.164Z,18.83
2022-08-05T04:05:34.574Z,21.83
2022-08-05T04:08:03.135Z,23.73
2022-08-05T04:10:37.596Z,22.80
2022-08-05T04:13:08.158Z,26.07
2022-08-05T04:15:36.142Z,31.37
2022-08-05T04:18:06.898Z,26.20
2022-08-05T04:20:35.562Z,27.90
2022-08-05T04:23:05.382Z,28.53
2022-08-05T04:25:57.689Z,30.37
2022-08-05T04:28:30.953Z,31.87
2022-08-05T04:31:01.016Z,28.90
2022-08-05T04:34:18.259Z,28.17
2022-08-05T04:36:46.213Z,25.53
2022-08-05T04:39:07.621Z,28.07
2022-08-05T04:41:37.774Z,27.40
2022-08-05T04:44:09.046Z,27.17
2022-08-05T04:46:38.094Z,37.20
2022-08-05T04:49:12.107Z,26.37
2022-08-05T04:51:43.511Z,28.57
2022-08-05T04:54:13.061Z,25.27
2022-08-05T04:56:41.053Z,26.90
2022-08-05T04:59:21.964Z,31.90
2022-08-05T05:02:08.159Z,27.70
2022-08-05T05:04:43.960Z,25.57
2022-08-05T05:07:17.147Z,25.70
2022-08-05T05:09:45.519Z,21.93
2022-08-05T05:12:13.071Z,20.00
2022-08-05T05:14:49.567Z,25.83
2022-08-05T05:17:23.848Z,28.10
2022-08-05T05:19:57.166Z,20.57
2022-08-05T05:22:26.050Z,19.57
2022-08-05T05:25:00.325Z,23.63
2022-08-05T05:27:45.847Z,21.37
2022-08-05T05:30:29.275Z,20.43
2022-08-05T05:33:00.465Z,23.10
2022-08-05T05:35:31.518Z,15.93
2022-08-05T05:38:05.652Z,15.47
2022-08-05T05:40:39.874Z,21.97
2022-08-05T05:43:13.655Z,23.27
2022-08-05T05:45:48.170Z,21.60
2022-08-05T05:48:16.276Z,19.40
2022-08-05T05:50:53.155Z,16.87
2022-08-05T05:53:22.949Z,17.63
2022-08-05T05:56:00.816Z,17.47
2022-08-05T05:58:32.341Z,16.40
2022-08-05T06:01:13.050Z,19.37
2022-08-05T06:04:00.400Z,18.20
2022-08-05T06:06:33.248Z,14.87
2022-08-05T06:09:04.048Z,13.30
2022-08-05T06:11:32.417Z,12.60
2022-08-05T06:14:00.753Z,13.17
2022-08-05T06:16:36.973Z,15.43
2022-08-05T06:19:07.536Z,16.53
2022-08-05T06:21:37.486Z,12.50
2022-08-05T06:24:07.614Z,12.43
2022-08-05T06:26:37.469Z,10.57
2022-08-05T06:29:23.733Z,12.57
2022-08-05T06:31:52.700Z,11.20
2022-08-05T06:34:22.699Z,11.37
2022-08-05T06:36:58.838Z,7.07
2022-08-05T06:39:29.052Z,12.83
2022-08-05T06:42:01.688Z,7.83
2022-08-05T06:44:34.104Z,10.27
2022-08-05T06:47:04.201Z,12.57
2022-08-05T06:50:00.119Z,9.60
2022-08-05T06:52:37.354Z,9.03
2022-08-05T06:55:08.813Z,8.47
2022-08-05T06:58:03.355Z,7.63
2022-08-05T07:00:24.766Z,11.70
2022-08-05T07:02:53.651Z,7.33
2022-08-05T07:05:37.522Z,7.70
2022-08-05T07:08:05.924Z,12.27
2022-08-05T07:10:38.224Z,9.00
2022-08-05T07:13:05.830Z,10.63
2022-08-05T07:15:34.339Z,8.03
2022-08-05T07:18:27.453Z,7.50
2022-08-05T07:20:57.569Z,12.50
2022-08-05T07:23:26.295Z,9.37
2022-08-05T07:25:57.177Z,9.17
2022-08-05T07:28:27.547Z,6.13
2022-08-05T07:30:55.279Z,7.80
2022-08-05T07:33:35.273Z,5.20
2022-08-05T07:36:19.876Z,9.20
2022-08-05T07:38:48.939Z,9.87
2022-08-05T07:42:09.177Z,4.93
2022-08-05T07:44:06.594Z,10.13
2022-08-05T07:46:43.103Z,5.33
2022-08-05T07:49:16.395Z,6.50
2022-08-05T07:51:52.870Z,16.53
2022-08-05T07:54:23.161Z,6.63
2022-08-05T07:57:13.282Z,7.13
2022-08-05T07:59:44.265Z,7.03
2022-08-05T08:02:17.812Z,6.13
2022-08-05T08:04:46.386Z,7.70
2022-08-05T08:07:15.019Z,5.40
2022-08-05T08:09:44.244Z,8.07
2022-08-05T08:12:35.486Z,6.97
2022-08-05T08:15:02.455Z,4.53
2022-08-05T08:17:31.504Z,3.40
2022-08-05T08:20:42.517Z,5.63
2022-08-05T08:22:55.810Z,4.27
2022-08-05T08:25:34.602Z,7.17
2022-08-05T08:28:18.689Z,5.00
2022-08-05T08:31:02.252Z,5.77
2022-08-05T08:33:35.954Z,5.00
2022-08-05T08:38:58.411Z,4.87
2022-08-05T08:41:51.946Z,6.07
2022-08-05T08:45:20.620Z,6.97
2022-08-05T08:47:47.197Z,7.40
2022-08-05T08:50:05.801Z,5.07
2022-08-05T08:52:47.435Z,5.10
2022-08-05T08:55:32.166Z,7.80
2022-08-05T08:58:08.703Z,3.03
2022-08-05T09:00:36.842Z,5.00
2022-08-05T09:03:06.458Z,19.33
2022-08-05T09:05:38.269Z,4.87
2022-08-05T09:08:26.699Z,5.10
2022-08-05T09:10:58.220Z,5.43
2022-08-05T09:13:31.843Z,5.30
2022-08-05T09:16:16.957Z,3.87
2022-08-05T09:18:44.794Z,6.13
2022-08-05T09:21:21.155Z,6.97
2022-08-05T09:24:03.992Z,6.70
2022-08-05T09:26:34.382Z,3.17
2022-08-05T09:29:08.956Z,7.13
2022-08-05T09:32:40.003Z,7.00
2022-08-05T09:34:26.082Z,3.77
2022-08-05T09:36:56.295Z,5.60
2022-08-05T09:39:39.290Z,4.47
2022-08-05T09:42:11.389Z,4.20
2022-08-05T09:44:45.142Z,4.53
2022-08-05T09:47:20.587Z,4.70
2022-08-05T09:50:01.199Z,5.07
2022-08-05T09:52:32.065Z,4.30
2022-08-05T09:55:55.330Z,6.93
2022-08-05T09:57:54.549Z,2.80
2022-08-05T10:00:26.600Z,3.63
2022-08-05T10:02:57.992Z,3.10
2022-08-05T10:05:27.604Z,4.03
2022-08-05T10:08:35.407Z,3.27
2022-08-05T10:10:45.359Z,1.73
2022-08-05T10:13:43.957Z,10.17
2022-08-05T10:16:29.005Z,4.43
2022-08-05T10:18:57.628Z,4.87
2022-08-05T10:21:25.237Z,2.00
2022-08-05T10:23:59.276Z,5.63
2022-08-05T10:26:32.700Z,3.07
2022-08-05T10:29:01.587Z,5.50
2022-08-05T10:33:01.294Z,4.30
2022-08-05T10:34:17.167Z,6.13
2022-08-05T10:36:45.038Z,4.30
2022-08-05T10:39:24.782Z,6.90
2022-08-05T10:42:04.174Z,3.07
2022-08-05T10:44:33.045Z,3.17
2022-08-05T10:47:10.321Z,4.33
2022-08-05T10:50:31.691Z,4.93
2022-08-05T10:52:58.583Z,3.30
2022-08-05T10:55:27.152Z,6.33
2022-08-05T11:00:54.985Z,2.30
2022-08-05T11:03:26.643Z,3.43
2022-08-05T11:06:15.754Z,6.10
2022-08-05T11:09:03.983Z,3.20
2022-08-05T11:11:52.341Z,6.87
2022-08-05T11:14:57.830Z,4.30
2022-08-05T11:17:57.401Z,5.30
2022-08-05T11:20:36.092Z,2.83
2022-08-05T11:23:22.228Z,4.43
2022-08-05T11:26:10.009Z,4.97
2022-08-05T11:28:41.227Z,6.30
2022-08-05T11:31:08.765Z,2.57
2022-08-05T11:33:46.471Z,3.67
2022-08-05T11:36:34.405Z,2.17
2022-08-05T11:39:04.927Z,2.30
2022-08-05T11:41:54.751Z,5.17
2022-08-05T11:44:31.197Z,6.00
2022-08-05T11:47:13.992Z,2.33
2022-08-05T11:49:49.712Z,4.03
2022-08-05T11:52:29.358Z,3.37
2022-08-05T11:54:57.769Z,4.50
2022-08-05T11:57:30.725Z,2.53
2022-08-05T12:00:25.618Z,5.17
2022-08-05T12:02:56.555Z,2.63
2022-08-05T12:05:32.304Z,5.23
2022-08-05T12:08:18.282Z,3.03
2022-08-05T12:10:46.627Z,2.37
2022-08-05T12:13:27.855Z,4.13
2022-08-05T12:16:18.461Z,3.27
2022-08-05T12:18:52.262Z,3.43
2022-08-05T12:21:50.353Z,1.90
2022-08-05T12:24:19.457Z,2.87
2022-08-05T12:26:48.564Z,1.67
2022-08-05T12:29:27.026Z,2.60
2022-08-05T12:31:55.969Z,3.40
2022-08-05T12:34:30.648Z,4.70
2022-08-05T12:37:03.390Z,1.83
2022-08-05T12:39:34.519Z,4.63
2022-08-05T12:42:17.238Z,3.77
2022-08-05T12:44:45.795Z,6.67
2022-08-05T12:47:17.110Z,6.50
2022-08-05T12:50:04.252Z,2.23
2022-08-05T12:52:41.699Z,2.40
2022-08-05T12:55:22.930Z,4.97
2022-08-05T12:58:48.882Z,2.63
2022-08-05T13:02:00.765Z,3.07
2022-08-05T13:03:32.399Z,2.83
2022-08-05T13:06:02.159Z,3.67
2022-08-05T13:08:32.337Z,4.53
2022-08-05T13:11:04.111Z,2.33
2022-08-05T13:14:06.426Z,3.73
2022-08-05T13:16:20.092Z,4.17
2022-08-05T13:18:55.198Z,1.83
2022-08-05T13:21:28.433Z,2.90
2022-08-05T13:24:08.818Z,2.47
2022-08-05T13:26:36.780Z,6.63
2022-08-05T13:29:05.152Z,1.97
2022-08-05T13:31:33.929Z,1.63
2022-08-05T13:34:25.932Z,1.87
2022-08-05T13:36:54.299Z,1.00
2022-08-05T13:40:13.067Z,3.63
2022-08-05T13:42:13.962Z,7.20
2022-08-05T13:44:45.026Z,1.40
2022-08-05T13:47:35.705Z,2.13
2022-08-05T13:50:08.525Z,3.83
2022-08-05T13:52:38.967Z,9.00
2022-08-05T13:55:09.830Z,1.77
2022-08-05T13:57:48.961Z,4.73
2022-08-05T14:00:27.702Z,2.83
2022-08-05T14:02:56.675Z,1.90
2022-08-05T14:05:48.188Z,2.53
2022-08-05T14:08:20.698Z,2.50
2022-08-05T14:10:49.054Z,1.93
2022-08-05T14:13:16.602Z,1.33
2022-08-05T14:16:05.956Z,1.97
2022-08-05T14:18:31.804Z,0.60
2022-08-05T14:21:00.148Z,0.90
2022-08-05T14:23:36.326Z,0.97
2022-08-05T14:26:04.865Z,1.23
2022-08-05T14:28:33.871Z,1.80
2022-08-05T14:31:02.085Z,1.67
2022-08-05T14:33:56.629Z,1.53
2022-08-05T14:36:21.256Z,0.77
2022-08-05T14:38:49.460Z,4.27
2022-08-05T14:41:16.969Z,1.13
2022-08-05T14:43:59.215Z,3.17
2022-08-05T14:46:35.140Z,0.77
2022-08-05T14:49:07.502Z,2.97
2022-08-05T14:51:42.558Z,0.60
2022-08-05T14:54:28.312Z,1.30
2022-08-05T14:56:58.083Z,0.80
2022-08-05T14:59:29.329Z,0.70
2022-08-05T15:02:02.908Z,1.67
2022-08-05T15:04:30.510Z,0.83
2022-08-05T15:06:58.201Z,0.60
2022-08-05T15:09:52.463Z,2.47
2022-08-05T15:12:16.789Z,1.67
2022-08-05T15:14:50.274Z,1.63
2022-08-05T15:17:46.814Z,4.53
2022-08-05T15:20:15.647Z,2.10
2022-08-05T15:22:44.869Z,1.53
2022-08-05T15:25:14.285Z,2.20
2022-08-05T15:27:42.985Z,0.40
2022-08-05T15:30:19.839Z,0.63
2022-08-05T15:32:47.364Z,0.57
2022-08-05T15:35:15.084Z,2.03
2022-08-05T15:38:32.299Z,0.97
2022-08-05T15:41:00.019Z,1.97
2022-08-05T15:43:20.112Z,0.60
2022-08-05T15:46:00.684Z,0.93
2022-08-05T15:48:29.371Z,0.80
2022-08-05T15:50:57.101Z,1.10
2022-08-05T15:53:26.359Z,2.00
2022-08-05T15:56:02.463Z,1.90
2022-08-05T15:58:36.961Z,3.87
2022-08-05T16:01:16.965Z,2.10
2022-08-05T16:03:48.439Z,0.80
2022-08-05T16:06:20.270Z,2.43
2022-08-05T16:08:50.957Z,3.20
2022-08-05T16:11:20.867Z,1.97
2022-08-05T16:14:06.675Z,1.33
2022-08-05T16:16:34.130Z,4.23
2022-08-05T16:19:01.766Z,1.20
2022-08-05T16:21:58.471Z,0.67
2022-08-05T16:24:39.722Z,1.00
2022-08-05T16:27:05.138Z,0.80
2022-08-05T16:29:37.619Z,0.60
2022-08-05T16:32:05.978Z,1.43
2022-08-05T16:34:33.680Z,2.10
2022-08-05T16:37:01.178Z,1.70
2022-08-05T16:40:06.577Z,0.93
2022-08-05T16:42:19.457Z,1.03
2022-08-05T16:44:57.065Z,3.63
2022-08-05T16:47:35.819Z,0.67
2022-08-05T16:50:08.711Z,2.33
2022-08-05T16:52:36.759Z,8.27
2022-08-05T16:55:04.464Z,4.10
2022-08-05T16:57:53.387Z,1.17
2022-08-05T17:00:26.191Z,0.70
2022-08-05T17:03:15.220Z,1.10
2022-08-05T17:05:53.755Z,0.90
2022-08-05T17:08:36.734Z,0.73
2022-08-05T17:11:12.862Z,9.23
2022-08-05T17:13:44.405Z,1.23
2022-08-05T17:16:29.622Z,0.80
2022-08-05T17:18:57.886Z,0.70
2022-08-05T17:21:25.362Z,0.80
2022-08-05T17:24:07.636Z,1.43
2022-08-05T17:26:48.090Z,0.70
2022-08-05T17:29:15.615Z,0.80
2022-08-05T17:31:58.216Z,1.07
2022-08-05T17:34:29.731Z,1.80
2022-08-05T17:36:59.601Z,3.00
2022-08-05T17:39:33.205Z,1.00
2022-08-05T17:42:18.439Z,0.80
2022-08-05T17:44:50.144Z,1.47
2022-08-05T17:47:21.994Z,2.83
2022-08-05T17:50:04.077Z,1.13
2022-08-05T17:52:53.306Z,1.43
2022-08-05T17:55:34.606Z,1.63
2022-08-05T17:58:09.389Z,2.00
2022-08-05T18:00:40.794Z,3.53
2022-08-05T18:03:23.719Z,1.90
2022-08-05T18:05:56.021Z,4.23
2022-08-05T18:08:31.085Z,2.63
2022-08-05T18:11:00.893Z,3.43
2022-08-05T18:13:36.689Z,2.27
2022-08-05T18:16:13.446Z,1.47
2022-08-05T18:18:41.589Z,2.20
2022-08-05T18:21:19.862Z,2.90
2022-08-05T18:23:53.743Z,2.40
2022-08-05T18:26:22.194Z,2.30
2022-08-05T18:28:57.705Z,1.47
2022-08-05T18:31:25.310Z,2.37
2022-08-05T18:33:53.438Z,3.60
2022-08-05T18:36:28.056Z,0.73
2022-08-05T18:38:56.344Z,2.53
2022-08-05T18:41:56.091Z,2.53
2022-08-05T18:44:12.742Z,1.07
2022-08-05T18:46:41.012Z,1.50
2022-08-05T18:49:08.952Z,0.80
2022-08-05T18:52:02.871Z,1.17
2022-08-05T18:54:26.196Z,2.37
2022-08-05T18:56:57.152Z,1.83
2022-08-05T18:59:43.587Z,2.20
2022-08-05T19:02:28.591Z,2.20
2022-08-05T19:05:02.642Z,1.70
2022-08-05T19:07:46.567Z,3.13
2022-08-05T19:10:15.023Z,1.33
2022-08-05T19:12:43.473Z,1.00
2022-08-05T19:15:25.152Z,1.47
2022-08-05T19:18:09.455Z,2.13
2022-08-05T19:20:41.624Z,1.20
2022-08-05T19:24:04.047Z,1.17
2022-08-05T19:26:01.941Z,1.40
2022-08-05T19:28:32.679Z,3.13
2022-08-05T19:31:01.257Z,1.07
2022-08-05T19:33:35.415Z,1.20
2022-08-05T19:36:06.057Z,2.93
2022-08-05T19:38:35.761Z,1.00
2022-08-05T19:41:07.288Z,2.07
2022-08-05T19:44:06.491Z,2.73
2022-08-05T19:46:29.055Z,2.00
2022-08-05T19:49:03.640Z,2.40
2022-08-05T19:52:05.463Z,3.93
2022-08-05T19:54:26.826Z,1.17
2022-08-05T19:56:58.649Z,5.20
2022-08-05T19:59:54.992Z,2.80
2022-08-05T20:02:13.888Z,3.33
2022-08-05T20:04:43.135Z,1.50
2022-08-05T20:07:14.063Z,0.83
2022-08-05T20:09:53.984Z,1.37
2022-08-05T20:12:23.999Z,3.13
2022-08-05T20:14:52.885Z,1.30
2022-08-05T20:17:23.261Z,1.03
2022-08-05T20:19:56.623Z,1.73
2022-08-05T20:22:26.680Z,1.20
2022-08-05T20:24:54.445Z,2.83
2022-08-05T20:27:26.666Z,1.83
2022-08-05T20:29:57.569Z,2.07
2022-08-05T20:32:27.295Z,3.27
2022-08-05T20:34:55.216Z,3.07
2022-08-05T20:38:06.638Z,2.17
2022-08-05T20:40:10.690Z,1.57
2022-08-05T20:42:38.418Z,2.40
2022-08-05T20:45:07.283Z,1.00
2022-08-05T20:47:40.069Z,1.10
2022-08-05T20:50:08.292Z,2.20
2022-08-05T20:52:39.197Z,1.67
2022-08-05T20:55:56.503Z,2.10
2022-08-05T20:57:57.140Z,3.57
2022-08-05T21:00:44.325Z,2.83
2022-08-05T21:03:12.295Z,1.43
2022-08-05T21:05:53.505Z,1.60
2022-08-05T21:08:26.797Z,2.53
2022-08-05T21:11:00.754Z,1.20
2022-08-05T21:13:48.200Z,1.50
2022-08-05T21:16:30.026Z,3.17
2022-08-05T21:19:00.353Z,1.20
2022-08-05T21:21:44.139Z,1.80
2022-08-05T21:24:17.070Z,5.23
2022-08-05T21:26:53.418Z,1.20
2022-08-05T21:29:32.071Z,3.40
2022-08-05T21:32:00.496Z,1.63
2022-08-05T21:34:28.174Z,1.57
2022-08-05T21:36:55.905Z,4.23
2022-08-05T21:39:26.815Z,1.43
2022-08-05T21:42:01.457Z,4.10
2022-08-05T21:44:32.632Z,2.43
2022-08-05T21:47:00.434Z,3.43
2022-08-05T21:49:56.509Z,5.10
2022-08-05T21:52:27.205Z,1.33
2022-08-05T21:54:56.236Z,1.90
2022-08-05T21:57:32.411Z,1.87
2022-08-05T22:00:05.959Z,3.97
2022-08-05T22:02:34.559Z,2.10
2022-08-05T22:05:02.242Z,1.73
2022-08-05T22:07:39.910Z,1.87
2022-08-05T22:10:26.701Z,2.17
2022-08-05T22:12:57.231Z,2.37
2022-08-05T22:16:01.813Z,1.60
2022-08-05T22:18:14.498Z,1.57
2022-08-05T22:20:42.913Z,2.13
2022-08-05T22:23:16.716Z,1.63
2022-08-05T22:26:10.334Z,4.73
2022-08-05T22:28:32.666Z,2.30
2022-08-05T22:31:05.229Z,1.60
2022-08-05T22:33:58.636Z,6.27
2022-08-05T22:36:24.109Z,2.63
2022-08-05T22:38:52.148Z,3.73
2022-08-05T22:41:25.956Z,4.43
2022-08-05T22:44:09.429Z,3.00
2022-08-05T22:46:40.674Z,1.13
2022-08-05T22:49:12.529Z,2.97
2022-08-05T22:52:06.327Z,1.70
2022-08-05T22:54:36.959Z,2.47
2022-08-05T22:57:07.506Z,1.10
2022-08-05T22:59:45.304Z,1.27
2022-08-05T23:02:18.395Z,1.27
2022-08-05T23:04:58.277Z,2.87
2022-08-05T23:07:30.301Z,5.43
2022-08-05T23:10:02.227Z,2.97
2022-08-05T23:12:32.374Z,2.50
2022-08-05T23:15:04.027Z,2.60
2022-08-05T23:17:59.747Z,1.73
2022-08-05T23:20:24.687Z,1.43
2022-08-05T23:22:55.672Z,3.43
2022-08-05T23:25:53.007Z,5.37
2022-08-05T23:28:12.401Z,1.87
2022-08-05T23:30:43.514Z,2.80
2022-08-05T23:33:22.629Z,1.60
2022-08-05T23:36:00.043Z,7.40
2022-08-05T23:38:27.518Z,6.70
2022-08-05T23:40:55.112Z,4.07
2022-08-05T23:43:25.173Z,4.17
2022-08-05T23:46:21.040Z,4.10
2022-08-05T23:48:59.287Z,3.30
2022-08-05T23:51:29.222Z,1.80
2022-08-05T23:54:01.014Z,3.70
2022-08-05T23:56:28.949Z,1.83
2022-08-05T23:58:58.738Z,1.20
